Time;durP1;ratioP1;P1;durP2;ratioP2;P2;SDS_P1;SDS_P2;PMS_P1;PMS_P2;Temp;Humidity;BMP_temperature;BMP_pressure;BME280_temperature;BME280_humidity;BME280_pressure;Samples;Min_cycle;Max_cycle;Signal;HPM_P1;HPM_P2
2023/10/03 16:33:28;;;;;;;22.05;8.60;;;;;;;13.69;58.64;99613.66;1277202;23;20299;-88
2023/10/03 16:36:21;;;;;;;22.15;8.18;;;;;;;13.65;58.53;99604.47;4841305;29;20114;-93
2023/10/03 16:38:48;;;;;;;16.98;7.07;;;;;;;13.22;58.92;99535.88;4829017;29;20049;-94
2023/10/03 16:41:20;;;;;;;27.30;7.50;;;;;;;13.47;58.89;99575.41;4891611;23;20056;-90
2023/10/03 16:59:19;;;;;;;28.58;7.30;;;;;;;13.18;58.70;99524.72;4892636;29;20068;-93
2023/10/03 17:04:41;;;;;;;30.13;6.90;;;;;;;13.10;59.01;99487.09;4922822;23;20527;-92
2023/10/03 17:07:39;;;;;;;20.85;7.13;;;;;;;13.42;58.89;99546.19;4914258;29;20114;-87
2023/10/03 17:10:08;;;;;;;18.50;6.93;;;;;;;13.80;58.59;99592.94;4911446;23;20048;-88
2023/10/03 17:13:25;;;;;;;17.33;6.38;;;;;;;13.75;58.38;99595.88;4904319;29;20133;-91
2023/10/03 17:15:53;;;;;;;18.08;6.97;;;;;;;13.27;58.40;99516.50;4884464;29;20033;-91
2023/10/03 17:18:19;;;;;;;30.73;8.35;;;;;;;13.68;58.66;99565.38;4918147;29;20119;-88
2023/10/03 17:20:47;;;;;;;22.23;7.32;;;;;;;13.43;58.71;99527.78;4919516;29;20044;-88
2023/10/03 17:23:15;;;;;;;18.02;7.28;;;;;;;13.70;58.39;99574.06;4879621;29;20041;-91
2023/10/03 17:25:46;;;;;;;18.70;7.18;;;;;;;13.40;58.17;99507.25;4914760;29;20116;-88
2023/10/03 17:28:15;;;;;;;16.42;5.85;;;;;;;13.83;58.05;99580.50;4878524;29;20045;-87
2023/10/03 17:30:50;;;;;;;21.67;6.30;;;;;;;13.42;58.55;99518.72;4903620;29;20037;-88
2023/10/03 17:33:19;;;;;;;34.05;6.38;;;;;;;13.42;59.87;99523.41;4873821;29;20037;-90
2023/10/03 17:35:50;;;;;;;15.52;6.07;;;;;;;13.42;59.38;99524.22;4881918;29;20048;-84
2023/10/03 17:38:46;;;;;;;14.63;5.53;;;;;;;13.65;58.77;99546.78;4890005;29;20053;-92
2023/10/03 17:41:16;;;;;;;23.00;5.95;;;;;;;13.80;58.61;99570.97;4861357;29;20052;-87
2023/10/03 17:43:48;;;;;;;19.88;5.32;;;;;;;13.77;58.45;99557.88;4914747;29;20045;-94
2023/10/03 17:46:14;;;;;;;16.88;5.68;;;;;;;13.70;58.04;99543.03;4915187;29;20049;-88
2023/10/03 17:48:40;;;;;;;14.77;5.68;;;;;;;13.83;57.96;99555.75;4908633;29;20041;-89
2023/10/03 17:51:08;;;;;;;13.65;5.38;;;;;;;13.64;59.19;99498.44;4916664;29;20045;-87
2023/10/03 17:53:35;;;;;;;14.00;5.32;;;;;;;14.05;58.72;99538.22;4916227;29;20051;-86
2023/10/03 17:56:02;;;;;;;25.83;6.10;;;;;;;14.42;61.95;99557.75;4913862;29;20107;-86
2023/10/03 17:58:28;;;;;;;21.67;5.75;;;;;;;14.42;59.05;99560.50;4903716;29;20316;-86
2023/10/03 18:00:55;;;;;;;17.90;5.53;;;;;;;14.30;57.78;99536.47;4894524;29;20127;-85
2023/10/03 18:03:41;;;;;;;14.55;5.00;;;;;;;14.31;57.42;99532.59;4897679;29;20059;-87
2023/10/03 18:06:16;;;;;;;15.13;6.03;;;;;;;14.60;59.17;99562.03;4911635;29;20056;-87
2023/10/03 18:08:49;;;;;;;12.75;4.78;;;;;;;14.68;59.06;99558.44;4891697;29;20128;-85
2023/10/03 18:11:21;;;;;;;11.48;5.15;;;;;;;14.69;58.43;99515.22;4906779;29;20056;-84
2023/10/03 18:13:50;;;;;;;19.38;5.22;;;;;;;14.94;55.78;99527.97;4889313;29;20048;-84
2023/10/03 18:16:16;;;;;;;18.65;5.20;;;;;;;14.62;55.98;99509.44;4906707;29;20048;-85
2023/10/03 18:18:53;;;;;;;17.75;5.85;;;;;;;14.86;58.67;99545.34;4924001;29;20471;-87
2023/10/03 18:21:20;;;;;;;16.58;5.00;;;;;;;14.95;55.33;99548.03;4909124;29;20071;-87
2023/10/03 18:23:49;;;;;;;22.38;4.85;;;;;;;14.90;57.01;99488.50;4879339;29;20060;-87
2023/10/03 18:26:20;;;;;;;16.58;5.07;;;;;;;14.93;54.70;99517.28;4907344;29;20040;-85
2023/10/03 18:28:47;;;;;;;13.85;5.15;;;;;;;14.57;55.48;99466.44;4912852;29;20123;-85
2023/10/03 18:31:18;;;;;;;16.83;5.07;;;;;;;14.63;56.33;99462.31;4912904;29;20052;-85
2023/10/03 18:33:46;;;;;;;11.45;4.47;;;;;;;14.41;55.32;99443.41;4908036;29;20053;-92
2023/10/03 18:36:19;;;;;;;15.50;5.00;;;;;;;14.61;56.68;99458.31;4893247;29;20044;-86
2023/10/03 18:38:46;;;;;;;14.60;4.90;;;;;;;14.59;56.07;99463.34;4890655;29;20079;-90
2023/10/03 18:41:13;;;;;;;;;;;;;;;14.86;55.48;99501.31;4888667;29;20448;-84
2023/10/03 18:43:47;;;;;;;13.88;4.75;;;;;;;14.79;56.50;99477.06;4891574;29;19923;-86
2023/10/03 18:46:15;;;;;;;14.02;5.05;;;;;;;15.04;55.80;99504.72;4892723;29;20566;-86
2023/10/03 18:48:42;;;;;;;16.98;4.20;;;;;;;14.59;57.44;99444.88;4910826;29;20048;-85
2023/10/03 18:51:09;;;;;;;17.90;5.20;;;;;;;14.85;57.08;99485.94;4906654;29;20036;-90
2023/10/03 18:53:38;;;;;;;;;;;;;;;14.94;55.98;99489.44;4882478;29;20456;-89
2023/10/03 18:56:09;;;;;;;10.40;4.28;;;;;;;14.91;55.33;99476.34;4878599;29;19928;-87
2023/10/03 18:58:37;;;;;;;8.90;4.20;;;;;;;14.99;54.93;99439.66;4892266;29;20057;-88
2023/10/03 19:01:15;;;;;;;15.68;4.90;;;;;;;15.08;56.13;99447.84;4906406;29;20069;-87
2023/10/03 19:03:41;;;;;;;10.45;4.25;;;;;;;14.79;54.96;99449.56;4886988;29;20041;-89
2023/10/03 19:06:12;;;;;;;11.00;4.40;;;;;;;14.16;56.04;99403.94;4862721;29;20045;-88
2023/10/03 19:08:42;;;;;;;13.75;4.25;;;;;;;14.28;56.91;99454.31;4890039;29;20049;-88
2023/10/03 19:11:14;;;;;;;25.92;4.63;;;;;;;14.31;57.26;99478.41;4905385;29;20059;-84
2023/10/03 19:13:41;;;;;;;12.07;4.25;;;;;;;14.17;57.70;99488.84;4901222;29;20049;-89
2023/10/03 19:16:17;;;;;;;11.18;4.38;;;;;;;14.12;57.80;99466.22;4887969;29;20472;-91
2023/10/03 19:18:46;;;;;;;;;;;;;;;14.10;58.03;99488.53;4907185;29;20051;-90
2023/10/03 19:21:15;;;;;;;9.40;3.75;;;;;;;13.85;58.19;99446.34;4907144;29;19927;-88
2023/10/03 19:23:44;;;;;;;17.92;4.22;;;;;;;13.94;58.47;99469.09;4909738;29;20040;-88
2023/10/03 19:26:15;;;;;;;21.42;4.13;;;;;;;13.97;58.53;99476.66;4911374;29;20037;-86
2023/10/03 19:28:45;;;;;;;12.55;4.00;;;;;;;13.72;58.69;99444.63;4918761;29;20035;-85
2023/10/03 19:31:18;;;;;;;11.13;4.70;;;;;;;13.35;58.85;99373.72;4914341;29;20087;-90
2023/10/03 19:33:53;;;;;;;10.80;4.22;;;;;;;13.71;59.03;99441.06;4884230;29;20077;-92
2023/10/03 19:36:28;;;;;;;15.35;4.97;;;;;;;13.56;59.05;99420.44;4884431;29;20049;-87
2023/10/03 19:38:55;;;;;;;15.73;4.70;;;;;;;13.85;59.36;99466.38;4908587;29;20048;-88
2023/10/03 19:41:25;;;;;;;15.98;4.30;;;;;;;13.40;59.64;99400.97;4895662;29;20037;-89
2023/10/03 19:43:54;;;;;;;12.52;4.65;;;;;;;13.34;59.56;99383.09;4887107;29;20131;-94
2023/10/03 19:46:28;;;;;;;13.18;4.20;;;;;;;13.76;59.73;99456.56;4896718;29;20140;-94
2023/10/03 19:49:05;;;;;;;12.30;4.05;;;;;;;13.80;59.90;99446.50;4867314;29;20116;-93
2023/10/03 19:51:33;;;;;;;11.15;4.70;;;;;;;13.67;60.11;99425.56;4898525;29;20041;-91
2023/10/03 19:54:11;;;;;;;14.20;4.78;;;;;;;13.72;60.09;99437.19;4896834;29;20072;-93
2023/10/03 19:56:42;;;;;;;16.77;4.05;;;;;;;13.48;60.32;99401.28;4903325;29;20049;-92
